createdAt,value
2022-09-22T00:01:09.232Z,3.72
2022-09-22T00:03:39.569Z,4.10
2022-09-22T00:06:15.229Z,4.62
2022-09-22T00:08:44.395Z,4.60
2022-09-22T00:11:17.191Z,4.40
2022-09-22T00:13:46.696Z,5.10
2022-09-22T00:16:14.408Z,4.70
2022-09-22T00:18:41.873Z,4.37
2022-09-22T00:21:12.615Z,4.25
2022-09-22T00:23:40.266Z,4.57
2022-09-22T00:26:10.634Z,4.80
2022-09-22T00:28:38.833Z,4.50
2022-09-22T00:31:07.413Z,4.95
2022-09-22T00:33:34.923Z,4.60
2022-09-22T00:36:03.044Z,5.20
2022-09-22T00:38:30.761Z,4.25
2022-09-22T00:41:00.887Z,4.05
2022-09-22T00:43:30.353Z,4.65
2022-09-22T00:46:09.566Z,4.87
2022-09-22T00:48:39.554Z,4.80
2022-09-22T00:51:07.929Z,4.72
2022-09-22T00:53:35.327Z,4.80
2022-09-22T00:56:07.486Z,4.93
2022-09-22T00:58:38.178Z,4.70
2022-09-22T01:01:09.418Z,4.18
2022-09-22T01:03:39.155Z,4.40
2022-09-22T01:06:07.796Z,4.22
2022-09-22T01:08:35.274Z,5.07
2022-09-22T01:11:02.632Z,4.85
2022-09-22T01:14:00.545Z,4.75
2022-09-22T01:16:45.920Z,4.43
2022-09-22T01:19:35.260Z,4.00
2022-09-22T01:22:32.555Z,4.53
2022-09-22T01:25:05.960Z,5.03
2022-09-22T01:27:58.046Z,4.50
2022-09-22T01:30:29.757Z,5.32
2022-09-22T01:33:09.159Z,4.10
2022-09-22T01:35:45.812Z,4.65
2022-09-22T01:38:37.715Z,4.43
2022-09-22T01:41:15.146Z,4.57
2022-09-22T01:43:50.954Z,5.93
2022-09-22T01:46:22.810Z,4.78
2022-09-22T01:48:50.217Z,4.53
2022-09-22T01:51:53.933Z,5.20
2022-09-22T01:54:25.059Z,5.15
2022-09-22T01:56:56.832Z,5.10
2022-09-22T01:59:26.156Z,5.75
2022-09-22T02:02:05.842Z,4.90
2022-09-22T02:05:00.597Z,5.00
2022-09-22T02:07:33.917Z,5.90
2022-09-22T02:10:04.470Z,5.47
2022-09-22T02:12:31.797Z,5.20
2022-09-22T02:14:59.148Z,5.00
2022-09-22T02:17:30.590Z,5.68
2022-09-22T02:20:00.374Z,5.72
2022-09-22T02:22:27.951Z,5.15
2022-09-22T02:24:55.340Z,5.30
2022-09-22T02:27:27.566Z,5.18
2022-09-22T02:30:08.187Z,5.20
2022-09-22T02:32:36.198Z,5.57
2022-09-22T02:35:03.950Z,5.35
2022-09-22T02:37:50.906Z,5.22
2022-09-22T02:40:28.642Z,5.43
2022-09-22T02:43:01.993Z,5.55
2022-09-22T02:45:32.317Z,5.20
2022-09-22T02:48:03.002Z,4.95
2022-09-22T02:50:30.615Z,5.28
2022-09-22T02:53:01.861Z,5.12
2022-09-22T02:55:29.236Z,4.90
2022-09-22T02:57:56.872Z,5.00
2022-09-22T03:00:24.197Z,5.12
2022-09-22T03:02:51.556Z,4.70
2022-09-22T03:05:19.162Z,4.97
2022-09-22T03:07:46.488Z,5.28
2022-09-22T03:10:13.995Z,4.97
2022-09-22T03:13:02.361Z,4.97
2022-09-22T03:15:30.087Z,4.87
2022-09-22T03:17:57.716Z,4.57
2022-09-22T03:20:25.272Z,4.78
2022-09-22T03:22:52.668Z,5.53
2022-09-22T03:25:20.274Z,5.78
2022-09-22T03:27:48.192Z,5.43
2022-09-22T03:30:15.565Z,5.72
2022-09-22T03:32:43.144Z,5.37
2022-09-22T03:35:10.512Z,6.25
2022-09-22T03:37:37.869Z,4.70
2022-09-22T03:40:05.899Z,5.15
2022-09-22T03:42:34.936Z,5.05
2022-09-22T03:45:04.247Z,4.60
2022-09-22T03:47:31.975Z,5.35
2022-09-22T03:49:59.298Z,5.62
2022-09-22T03:52:27.355Z,5.37
2022-09-22T03:54:54.990Z,5.50
2022-09-22T03:57:22.328Z,5.68
2022-09-22T03:59:49.874Z,5.32
2022-09-22T04:02:17.791Z,5.60
2022-09-22T04:04:45.632Z,5.55
2022-09-22T04:07:12.957Z,5.05
2022-09-22T04:09:41.961Z,5.03
2022-09-22T04:12:09.849Z,5.28
2022-09-22T04:14:37.186Z,5.18
2022-09-22T04:17:05.242Z,5.20
2022-09-22T04:19:35.668Z,5.35
2022-09-22T04:22:03.525Z,4.75
2022-09-22T04:24:30.898Z,4.60
2022-09-22T04:29:45.829Z,5.32
2022-09-22T04:32:14.524Z,4.90
2022-09-22T04:34:42.934Z,5.12
2022-09-22T04:37:10.900Z,5.65
2022-09-22T04:39:38.614Z,5.22
2022-09-22T04:42:06.155Z,5.30
2022-09-22T04:44:35.433Z,5.65
2022-09-22T04:47:03.959Z,6.15
2022-09-22T04:49:31.351Z,6.35
2022-09-22T04:51:59.052Z,5.50
2022-09-22T04:54:26.643Z,5.87
2022-09-22T04:56:53.985Z,4.93
2022-09-22T04:59:21.345Z,6.35
2022-09-22T05:01:48.981Z,5.90
2022-09-22T05:04:16.744Z,5.85
2022-09-22T05:06:44.059Z,6.00
2022-09-22T05:09:11.679Z,5.87
2022-09-22T05:11:39.579Z,5.68
2022-09-22T05:14:06.913Z,6.05
2022-09-22T05:16:35.281Z,5.68
2022-09-22T05:19:02.731Z,5.93
2022-09-22T05:21:30.052Z,5.62
2022-09-22T05:23:57.706Z,6.40
2022-09-22T05:26:25.860Z,6.12
2022-09-22T05:28:53.364Z,6.90
2022-09-22T05:31:21.022Z,6.28
2022-09-22T05:33:48.373Z,6.15
2022-09-22T05:36:15.885Z,6.12
2022-09-22T05:38:43.484Z,5.87
2022-09-22T05:41:10.910Z,6.80
2022-09-22T05:43:38.306Z,6.47
2022-09-22T05:46:05.998Z,6.93
2022-09-22T05:48:33.438Z,7.12
2022-09-22T05:51:01.277Z,6.35
2022-09-22T05:53:28.933Z,6.62
2022-09-22T05:55:57.078Z,5.85
2022-09-22T05:58:24.448Z,6.05
2022-09-22T06:00:52.070Z,6.60
2022-09-22T06:03:19.709Z,5.90
2022-09-22T06:05:47.053Z,6.07
2022-09-22T06:08:14.456Z,5.90
2022-09-22T06:10:42.256Z,6.32
2022-09-22T06:13:10.142Z,5.60
2022-09-22T06:15:38.379Z,5.78
2022-09-22T06:18:07.579Z,5.40
2022-09-22T06:20:41.043Z,5.80
2022-09-22T06:23:09.031Z,5.68
2022-09-22T06:25:36.386Z,5.43
2022-09-22T06:28:07.282Z,5.12
2022-09-22T06:30:35.694Z,5.25
2022-09-22T06:33:03.458Z,5.18
2022-09-22T06:35:35.390Z,4.72
2022-09-22T06:38:03.620Z,5.28
2022-09-22T06:40:32.336Z,5.25
2022-09-22T06:43:00.286Z,4.72
2022-09-22T06:45:27.997Z,5.43
2022-09-22T06:47:58.954Z,5.47
2022-09-22T06:50:31.088Z,5.28
2022-09-22T06:53:02.581Z,5.03
2022-09-22T06:55:30.198Z,5.35
2022-09-22T06:57:59.007Z,5.40
2022-09-22T07:00:31.296Z,5.12
2022-09-22T07:03:25.502Z,5.50
2022-09-22T07:06:02.588Z,5.30
2022-09-22T07:08:30.868Z,5.47
2022-09-22T07:11:02.110Z,4.60
2022-09-22T07:13:30.173Z,5.28
2022-09-22T07:16:01.479Z,4.70
2022-09-22T07:18:29.996Z,4.95
2022-09-22T07:21:05.744Z,5.75
2022-09-22T07:23:35.645Z,4.65
2022-09-22T07:26:07.338Z,5.28
2022-09-22T07:28:35.251Z,4.18
2022-09-22T07:31:11.318Z,4.75
2022-09-22T07:33:39.689Z,4.60
2022-09-22T07:36:15.381Z,4.60
2022-09-22T07:38:43.259Z,4.72
2022-09-22T07:41:12.469Z,4.28
2022-09-22T07:43:40.301Z,4.35
2022-09-22T07:46:07.884Z,4.10
2022-09-22T07:48:36.355Z,4.25
2022-09-22T07:51:16.359Z,4.47
2022-09-22T07:53:45.773Z,4.68
2022-09-22T07:56:15.170Z,4.97
2022-09-22T07:58:47.640Z,4.65
2022-09-22T08:01:15.286Z,4.03
2022-09-22T08:03:42.983Z,4.62
2022-09-22T08:06:11.230Z,4.57
2022-09-22T08:08:42.251Z,3.75
2022-09-22T08:11:13.279Z,5.05
2022-09-22T08:13:43.730Z,4.18
2022-09-22T08:16:11.819Z,4.62
2022-09-22T08:18:41.995Z,4.95
2022-09-22T08:21:09.368Z,4.90
2022-09-22T08:23:37.577Z,5.20
2022-09-22T08:26:06.329Z,4.50
2022-09-22T08:28:33.700Z,4.90
2022-09-22T08:31:01.573Z,4.87
2022-09-22T08:33:32.265Z,5.20
2022-09-22T08:36:03.742Z,4.80
2022-09-22T08:38:31.449Z,4.95
2022-09-22T08:41:04.705Z,5.00
2022-09-22T08:43:32.394Z,5.20
2022-09-22T08:46:01.321Z,5.00
2022-09-22T08:48:47.398Z,4.72
2022-09-22T08:54:08.723Z,4.47
2022-09-22T08:56:40.990Z,4.43
2022-09-22T08:59:11.347Z,3.78
2022-09-22T09:01:42.730Z,4.32
2022-09-22T09:04:28.747Z,4.12
2022-09-22T09:10:00.469Z,4.70
2022-09-22T09:12:34.911Z,4.37
2022-09-22T09:15:29.392Z,4.35
2022-09-22T09:17:59.393Z,4.97
2022-09-22T09:20:39.225Z,4.47
2022-09-22T09:23:14.377Z,5.50
2022-09-22T09:25:42.254Z,5.10
2022-09-22T09:28:18.940Z,4.72
2022-09-22T09:33:31.468Z,5.62
2022-09-22T09:35:58.823Z,5.40
2022-09-22T09:38:35.494Z,5.95
2022-09-22T09:41:15.312Z,6.07
2022-09-22T09:43:44.910Z,6.65
2022-09-22T09:46:30.525Z,6.55
2022-09-22T09:49:12.457Z,6.45
2022-09-22T09:51:40.519Z,7.10
2022-09-22T09:54:13.097Z,7.43
2022-09-22T09:57:12.790Z,7.35
2022-09-22T10:00:06.247Z,7.03
2022-09-22T10:02:50.933Z,7.53
2022-09-22T10:05:18.390Z,7.90
2022-09-22T10:07:57.466Z,7.45
2022-09-22T10:10:35.709Z,7.75
2022-09-22T10:13:05.933Z,7.90
2022-09-22T10:15:35.122Z,8.10
2022-09-22T10:18:02.815Z,1.95
2022-09-22T10:20:31.651Z,2.28
2022-09-22T10:23:20.275Z,2.35
2022-09-22T10:25:48.335Z,2.05
2022-09-22T10:28:17.565Z,1.98
2022-09-22T10:30:46.433Z,2.67
2022-09-22T10:33:14.885Z,2.10
2022-09-22T10:35:46.225Z,1.98
2022-09-22T10:38:21.151Z,2.08
2022-09-22T10:41:19.436Z,2.12
2022-09-22T10:44:00.329Z,2.12
2022-09-22T10:46:59.956Z,1.90
2022-09-22T10:49:31.220Z,1.48
2022-09-22T10:52:21.921Z,1.62
2022-09-22T10:55:16.866Z,2.20
2022-09-22T10:58:00.055Z,1.50
2022-09-22T11:00:27.498Z,1.58
2022-09-22T11:03:10.392Z,2.00
2022-09-22T11:06:05.792Z,1.77
2022-09-22T11:09:24.979Z,1.40
2022-09-22T11:12:17.016Z,1.75
2022-09-22T11:14:56.954Z,1.60
2022-09-22T11:18:07.073Z,1.98
2022-09-22T11:20:36.772Z,1.98
2022-09-22T11:23:26.029Z,1.83
2022-09-22T11:26:33.907Z,1.58
2022-09-22T11:29:37.486Z,1.77
2022-09-22T11:32:29.364Z,1.60
2022-09-22T11:35:21.463Z,2.37
2022-09-22T11:38:13.784Z,1.70
2022-09-22T11:41:18.628Z,1.70
2022-09-22T11:44:11.660Z,1.60
2022-09-22T11:47:01.064Z,1.60
2022-09-22T11:49:43.604Z,2.15
2022-09-22T11:52:32.362Z,2.08
2022-09-22T11:55:05.957Z,1.73
2022-09-22T11:57:36.143Z,1.92
2022-09-22T12:00:19.025Z,2.80
2022-09-22T12:03:02.122Z,1.48
2022-09-22T12:05:53.557Z,1.40
2022-09-22T12:08:23.104Z,1.80
2022-09-22T12:10:51.396Z,1.77
2022-09-22T12:13:20.433Z,1.92
2022-09-22T12:16:08.733Z,1.95
2022-09-22T12:19:02.869Z,2.03
2022-09-22T12:21:48.807Z,2.00
2022-09-22T12:24:16.179Z,2.05
2022-09-22T12:26:45.343Z,2.05
2022-09-22T12:29:16.282Z,2.00
2022-09-22T12:31:45.447Z,2.20
2022-09-22T12:34:27.077Z,2.33
2022-09-22T12:36:57.120Z,2.30
2022-09-22T12:39:25.931Z,2.20
2022-09-22T12:42:01.624Z,2.33
2022-09-22T12:44:36.901Z,2.25
2022-09-22T12:47:08.280Z,2.22
2022-09-22T12:49:37.452Z,2.10
2022-09-22T12:52:04.798Z,2.40
2022-09-22T12:54:36.788Z,2.33
2022-09-22T12:59:39.046Z,2.70
2022-09-22T13:02:15.995Z,2.17
2022-09-22T13:04:49.675Z,1.92
2022-09-22T13:07:36.057Z,1.85
2022-09-22T13:13:19.921Z,2.78
2022-09-22T13:15:47.221Z,2.40
2022-09-22T13:18:37.005Z,2.83
2022-09-22T13:21:13.453Z,2.50
2022-09-22T13:23:58.799Z,2.58
2022-09-22T13:26:39.133Z,2.83
2022-09-22T13:29:15.393Z,2.75
2022-09-22T13:31:46.151Z,2.70
2022-09-22T13:34:35.301Z,3.58
2022-09-22T13:37:12.395Z,2.37
2022-09-22T13:39:46.889Z,2.55
2022-09-22T13:42:23.406Z,3.25
2022-09-22T13:45:04.322Z,2.90
2022-09-22T13:47:31.944Z,3.65
2022-09-22T13:50:12.857Z,2.65
2022-09-22T13:52:40.244Z,3.65
2022-09-22T13:55:28.222Z,3.03
2022-09-22T13:57:56.261Z,2.78
2022-09-22T14:00:26.525Z,2.55
2022-09-22T14:02:57.749Z,3.17
2022-09-22T14:05:27.635Z,3.22
2022-09-22T14:08:11.173Z,2.80
2022-09-22T14:10:40.558Z,2.92
2022-09-22T14:13:39.677Z,2.97
2022-09-22T14:16:29.674Z,7.43
2022-09-22T14:19:18.040Z,4.15
2022-09-22T14:21:55.745Z,3.08
2022-09-22T14:24:23.405Z,3.10
2022-09-22T14:27:03.015Z,3.22
2022-09-22T14:29:35.789Z,3.72
2022-09-22T14:32:39.789Z,3.33
2022-09-22T14:35:25.969Z,2.78
2022-09-22T14:37:53.403Z,2.37
2022-09-22T14:40:22.644Z,2.47
2022-09-22T14:43:08.882Z,2.70
2022-09-22T14:45:36.959Z,2.50
2022-09-22T14:48:16.821Z,3.47
2022-09-22T14:51:05.398Z,3.33
2022-09-22T14:53:37.722Z,4.80
2022-09-22T14:56:13.229Z,4.05
2022-09-22T14:58:41.434Z,4.47
2022-09-22T15:01:40.484Z,3.10
2022-09-22T15:04:17.630Z,3.67
2022-09-22T15:06:46.297Z,3.25
2022-09-22T15:09:35.857Z,2.90
2022-09-22T15:12:03.726Z,2.75
2022-09-22T15:14:44.287Z,3.10
2022-09-22T15:17:59.507Z,3.55
2022-09-22T15:20:38.684Z,3.30
2022-09-22T15:23:15.860Z,2.90
2022-09-22T15:25:43.512Z,3.15
2022-09-22T15:28:16.664Z,3.87
2022-09-22T15:30:44.797Z,4.22
2022-09-22T15:33:15.539Z,3.87
2022-09-22T15:35:44.740Z,4.00
2022-09-22T15:38:17.784Z,3.50
2022-09-22T15:40:46.712Z,3.67
2022-09-22T15:43:20.654Z,4.03
2022-09-22T15:46:09.198Z,3.92
2022-09-22T15:48:38.305Z,3.60
2022-09-22T15:51:07.715Z,5.62
2022-09-22T15:53:35.188Z,4.20
2022-09-22T15:56:05.164Z,4.62
2022-09-22T15:58:34.942Z,4.37
2022-09-22T16:01:02.904Z,4.87
2022-09-22T16:03:31.404Z,4.20
2022-09-22T16:05:59.964Z,4.25
2022-09-22T16:08:29.624Z,4.45
2022-09-22T16:10:58.412Z,4.30
2022-09-22T16:13:26.899Z,4.82
2022-09-22T16:15:54.924Z,3.95
2022-09-22T16:18:22.585Z,7.57
2022-09-22T16:20:51.756Z,10.23
2022-09-22T16:23:19.665Z,9.57
2022-09-22T16:25:52.342Z,5.57
2022-09-22T16:28:20.064Z,7.25
2022-09-22T16:30:47.962Z,9.68
2022-09-22T16:33:15.647Z,21.10
2022-09-22T16:35:43.249Z,11.02
2022-09-22T16:38:11.681Z,6.85
2022-09-22T16:40:39.077Z,4.93
2022-09-22T16:43:08.805Z,4.40
2022-09-22T16:45:56.448Z,5.32
2022-09-22T16:48:23.807Z,4.55
2022-09-22T16:50:53.827Z,3.03
2022-09-22T16:53:22.759Z,3.80
2022-09-22T16:55:50.093Z,3.55
2022-09-22T16:58:17.717Z,5.55
2022-09-22T17:00:45.135Z,4.30
2022-09-22T17:03:12.602Z,4.37
2022-09-22T17:05:41.144Z,5.00
2022-09-22T17:08:08.904Z,5.40
2022-09-22T17:10:36.265Z,3.90
2022-09-22T17:13:08.418Z,4.18
2022-09-22T17:15:36.085Z,3.75
2022-09-22T17:18:04.158Z,4.93
2022-09-22T17:20:32.522Z,4.57
2022-09-22T17:22:59.873Z,4.43
2022-09-22T17:25:29.093Z,5.10
2022-09-22T17:27:56.809Z,5.07
2022-09-22T17:30:24.973Z,6.20
2022-09-22T17:32:53.010Z,5.03
2022-09-22T17:35:21.814Z,5.50
2022-09-22T17:37:49.161Z,5.90
2022-09-22T17:40:16.911Z,6.28
2022-09-22T17:42:44.325Z,5.30
2022-09-22T17:45:11.754Z,5.05
2022-09-22T17:47:58.499Z,4.60
2022-09-22T17:50:44.506Z,4.40
2022-09-22T17:58:30.393Z,4.32
2022-09-22T18:00:58.016Z,5.18
2022-09-22T18:03:25.669Z,4.00
2022-09-22T18:05:54.245Z,4.20
2022-09-22T18:08:22.151Z,3.83
2022-09-22T18:10:49.941Z,4.20
2022-09-22T18:13:18.300Z,4.85
2022-09-22T18:15:45.826Z,4.80
2022-09-22T18:18:13.520Z,5.07
2022-09-22T18:20:40.902Z,5.65
2022-09-22T18:23:08.246Z,5.60
2022-09-22T18:25:36.923Z,5.30
2022-09-22T18:28:07.755Z,3.87
2022-09-22T18:30:35.093Z,5.03
2022-09-22T18:33:02.677Z,4.47
2022-09-22T18:35:32.238Z,5.50
2022-09-22T18:37:59.603Z,4.30
2022-09-22T18:40:30.092Z,4.60
2022-09-22T18:42:57.731Z,5.00
2022-09-22T18:45:25.195Z,4.65
2022-09-22T18:47:52.801Z,5.45
2022-09-22T18:50:20.421Z,5.40
2022-09-22T18:52:47.913Z,3.92
2022-09-22T18:55:18.273Z,4.43
2022-09-22T18:57:47.796Z,4.32
2022-09-22T19:00:15.774Z,4.20
2022-09-22T19:02:43.521Z,4.78
2022-09-22T19:05:10.929Z,4.05
2022-09-22T19:07:42.107Z,4.97
2022-09-22T19:10:15.512Z,4.32
2022-09-22T19:12:43.060Z,5.40
2022-09-22T19:15:16.417Z,5.35
2022-09-22T19:17:44.918Z,4.65
2022-09-22T19:20:14.561Z,4.53
2022-09-22T19:22:44.970Z,5.45
2022-09-22T19:25:12.734Z,5.12
2022-09-22T19:27:40.261Z,4.60
2022-09-22T19:30:11.546Z,5.12
2022-09-22T19:32:39.398Z,6.07
2022-09-22T19:35:07.051Z,4.65
2022-09-22T19:37:34.409Z,4.50
2022-09-22T19:40:02.472Z,5.05
2022-09-22T19:42:29.838Z,5.12
2022-09-22T19:44:57.202Z,5.30
2022-09-22T19:47:24.793Z,6.03
2022-09-22T19:49:52.267Z,5.70
2022-09-22T19:52:21.027Z,4.93
2022-09-22T19:54:48.644Z,5.32
2022-09-22T19:57:16.400Z,5.32
2022-09-22T19:59:44.907Z,5.57
2022-09-22T20:02:13.427Z,5.15
2022-09-22T20:04:41.164Z,5.90
2022-09-22T20:07:10.722Z,5.10
2022-09-22T20:09:38.145Z,4.62
2022-09-22T20:12:05.767Z,4.80
2022-09-22T20:14:33.132Z,5.60
2022-09-22T20:17:08.034Z,4.90
2022-09-22T20:19:38.376Z,5.28
2022-09-22T20:22:25.464Z,4.50
2022-09-22T20:25:02.353Z,5.35
2022-09-22T20:27:31.591Z,4.93
2022-09-22T20:29:59.489Z,4.62
2022-09-22T20:32:28.021Z,4.62
2022-09-22T20:34:58.494Z,5.10
2022-09-22T20:37:26.139Z,5.12
2022-09-22T20:39:53.484Z,5.28
2022-09-22T20:42:20.897Z,5.03
2022-09-22T20:44:49.199Z,4.97
2022-09-22T20:47:18.356Z,5.37
2022-09-22T20:49:50.622Z,5.03
2022-09-22T20:52:20.117Z,4.68
2022-09-22T20:54:47.990Z,4.70
2022-09-22T20:57:15.461Z,4.65
2022-09-22T20:59:45.575Z,4.53
2022-09-22T21:02:14.033Z,4.37
2022-09-22T21:04:41.581Z,4.60
2022-09-22T21:07:09.436Z,4.72
2022-09-22T21:09:55.719Z,4.72
2022-09-22T21:12:28.751Z,5.22
2022-09-22T21:14:58.506Z,4.82
2022-09-22T21:17:27.781Z,4.75
2022-09-22T21:19:57.746Z,4.85
2022-09-22T21:22:27.306Z,4.12
2022-09-22T21:24:55.248Z,5.43
2022-09-22T21:27:22.769Z,4.57
2022-09-22T21:29:50.124Z,4.90
2022-09-22T21:32:19.930Z,5.10
2022-09-22T21:34:47.366Z,4.80
2022-09-22T21:37:14.753Z,4.57
2022-09-22T21:39:42.401Z,5.50
2022-09-22T21:42:09.712Z,5.07
2022-09-22T21:44:37.054Z,4.45
2022-09-22T21:47:04.882Z,4.62
2022-09-22T21:49:32.938Z,5.53
2022-09-22T21:52:01.163Z,5.20
2022-09-22T21:54:28.777Z,4.97
2022-09-22T21:56:57.302Z,4.97
2022-09-22T21:59:24.677Z,6.07
2022-09-22T22:01:52.334Z,4.97
2022-09-22T22:04:20.042Z,5.80
2022-09-22T22:06:47.472Z,5.40
2022-09-22T22:09:19.347Z,5.28
2022-09-22T22:11:55.510Z,5.05
2022-09-22T22:14:23.858Z,5.60
2022-09-22T22:16:52.772Z,5.78
2022-09-22T22:19:21.432Z,5.32
2022-09-22T22:21:50.351Z,5.07
2022-09-22T22:24:23.173Z,5.62
2022-09-22T22:27:10.204Z,5.07
2022-09-22T22:29:41.091Z,5.30
2022-09-22T22:32:09.458Z,5.53
2022-09-22T22:34:36.981Z,5.65
2022-09-22T22:37:07.123Z,5.43
2022-09-22T22:39:34.502Z,4.72
2022-09-22T22:42:01.852Z,5.50
2022-09-22T22:44:29.534Z,5.45
2022-09-22T22:46:56.888Z,4.85
2022-09-22T22:49:24.268Z,5.57
2022-09-22T22:51:52.465Z,5.75
2022-09-22T22:54:19.869Z,6.18
2022-09-22T22:56:51.042Z,4.85
2022-09-22T22:59:19.203Z,5.25
2022-09-22T23:01:46.616Z,5.43
2022-09-22T23:04:14.027Z,5.80
2022-09-22T23:06:44.028Z,5.15
2022-09-22T23:09:14.071Z,5.47
2022-09-22T23:11:42.147Z,5.40
2022-09-22T23:14:11.479Z,5.95
2022-09-22T23:16:40.439Z,5.75
2022-09-22T23:19:08.716Z,5.60
2022-09-22T23:21:36.214Z,5.95
2022-09-22T23:24:04.322Z,6.12
2022-09-22T23:26:32.138Z,5.35
2022-09-22T23:28:59.682Z,6.15
2022-09-22T23:31:27.752Z,5.45
2022-09-22T23:33:55.349Z,4.72
2022-09-22T23:36:24.271Z,6.12
2022-09-22T23:38:55.419Z,5.68
2022-09-22T23:41:23.005Z,5.90
2022-09-22T23:43:50.490Z,5.20
2022-09-22T23:46:17.954Z,6.03
2022-09-22T23:48:47.396Z,5.53
2022-09-22T23:51:14.817Z,5.65
2022-09-22T23:53:42.190Z,5.75
2022-09-22T23:56:09.778Z,5.97
2022-09-22T23:58:38.189Z,5.90
